^^
Station Historical Data
Daily Summary for May 8, 2017 Units:  Metric    English   Both
« Previous Day
Next Day »
Daily Weekly Monthly Yearly Custom
  High: Low: Average:
Temperature: 29.9 °C 15.9 °C 22.5 °C
Dew Point: 8.4 °C -0.2 °C 3.9 °C
Humidity: 47% 17% 32%
Wind Speed: 25.9km/h 0km/h 3.1km/h
Wind Gust: 32.2km/h - -
Wind- - SW
Pressure: 1015.1 hPa 1010.7 hPa -
Precipitation: 0 mm    
Historical Graphs
 
 
Tabular Data for May 8, 2017
Time Temperature Dew Point Pressure Wind Wind Speed Wind Gust Humidity Rainfall Rate (Hourly) solar Conditions
01:12 18.6 °C 5.1 °C 1013.8 hPa Calm     41% 0 mm 0.0 W/m2
01:17 18.7 °C 4.1 °C 1013.4 hPa Calm     38% 0 mm 0.0 W/m2
01:22 19.2 °C 4.2 °C 1013.4 hPa Calm     37% 0 mm 0.0 W/m2
01:27 19.5 °C 4.4 °C 1013.4 hPa Calm     37% 0 mm 0.0 W/m2
01:32 19.6 °C 4.5 °C 1013.4 hPa Calm     37% 0 mm 0.0 W/m2
01:37 19.4 °C 4.3 °C 1013.4 hPa Calm     37% 0 mm 0.0 W/m2
01:43 19.3 °C 4.2 °C 1013.4 hPa Calm     37% 0 mm 0.0 W/m2
01:48 19.2 °C 4.5 °C 1013.4 hPa Calm     38% 0 mm 0.0 W/m2
01:54 19.3 °C 4.2 °C 1013.4 hPa Calm     37% 0 mm 0.0 W/m2
02:04 19.5 °C 4 °C 1013.1 hPa Calm     36% 0 mm 0.0 W/m2
02:09 19.6 °C 4.1 °C 1013.1 hPa Calm     36% 0 mm 0.0 W/m2
02:14 19.7 °C 3.8 °C 1013.1 hPa Calm     35% 0 mm 0.0 W/m2
02:19 19.8 °C 4.3 °C 1013.1 hPa Calm     36% 0 mm 0.0 W/m2
02:24 19.9 °C 4.4 °C 1013.1 hPa Calm     36% 0 mm 0.0 W/m2
02:30 19.9 °C 4.4 °C 1013.1 hPa Calm     36% 0 mm 0.0 W/m2
02:35 20.1 °C 5 °C 1013.1 hPa Calm     37% 0 mm 0.0 W/m2
02:40 20.1 °C 5 °C 1013.1 hPa Calm     37% 0 mm 0.0 W/m2
02:45 20.1 °C 5 °C 1013.1 hPa Calm     37% 0 mm 0.0 W/m2
02:55 21.1 °C 4.2 °C 1013.8 hPa West 13 km/h 17.7 km/h 33% 0 mm 0.0 W/m2
03:05 21.7 °C 4.7 °C 1013.4 hPa West 3.2 km/h 8 km/h 33% 0 mm 0.0 W/m2
03:10 21.6 °C 4.6 °C 1013.1 hPa Calm     33% 0 mm 0.0 W/m2
03:15 21.4 °C 4.5 °C 1013.4 hPa Calm     33% 0 mm 0.0 W/m2
03:21 21.1 °C 4.6 °C 1013.4 hPa Calm     34% 0 mm 0.0 W/m2
03:26 20.8 °C 4.4 °C 1013.4 hPa Calm     34% 0 mm 0.0 W/m2
03:31 20.6 °C 4.2 °C 1013.8 hPa Calm     34% 0 mm 0.0 W/m2
03:36 20.6 °C 4.2 °C 1013.8 hPa Calm     34% 0 mm 0.0 W/m2
03:41 20.6 °C 4.2 °C 1013.4 hPa Calm     34% 0 mm 0.0 W/m2
03:46 20.6 °C 4.2 °C 1013.4 hPa Calm     34% 0 mm 0.0 W/m2
03:52 20.3 °C 3.9 °C 1013.4 hPa Calm     34% 0 mm 0.0 W/m2
03:57 20.2 °C 3.8 °C 1013.4 hPa Calm     34% 0 mm 0.0 W/m2
04:07 19.4 °C 3.9 °C 1013.4 hPa Calm     36% 0 mm 0.0 W/m2
04:12 19.1 °C 4.4 °C 1013.1 hPa Calm     38% 0 mm 0.0 W/m2
04:22 19 °C 5.8 °C 1013.1 hPa Calm     42% 0 mm 0.0 W/m2
04:38 18.4 °C 6.3 °C 1012.8 hPa Calm     45% 0 mm 0.0 W/m2
04:43 18.6 °C 6.4 °C 1012.8 hPa Calm   9.7 km/h 45% 0 mm 0.0 W/m2
04:48 18.8 °C 6 °C 1012.4 hPa West 11.1 km/h 12.9 km/h 43% 0 mm 0.0 W/m2
04:53 18.9 °C 5.7 °C 1012.8 hPa Calm   1.6 km/h 42% 0 mm 0.0 W/m2
04:59 18.9 °C 5.7 °C 1013.1 hPa Calm     42% 0 mm 0.0 W/m2
05:09 18.8 °C 5.6 °C 1013.1 hPa Calm     42% 0 mm 0.0 W/m2
05:14 18.7 °C 5.9 °C 1013.1 hPa Calm     43% 0 mm 0.0 W/m2
05:19 18.6 °C 5.8 °C 1013.1 hPa Calm     43% 0 mm 0.0 W/m2
05:25 18.5 °C 5.3 °C 1013.1 hPa Calm     42% 0 mm 0.0 W/m2
05:31 18.4 °C 5.6 °C 1013.1 hPa Calm     43% 0 mm 0.0 W/m2
05:36 18.2 °C 5.4 °C 1013.1 hPa Calm     43% 0 mm 0.0 W/m2
05:41 17.9 °C 5.1 °C 1013.1 hPa Calm     43% 0 mm 0.0 W/m2
05:47 17.5 °C 5.1 °C 1013.4 hPa Calm     44% 0 mm 0.0 W/m2
05:57 16.9 °C 5.5 °C 1013.4 hPa Calm     47% 0 mm 0.0 W/m2
06:02 16.7 °C 5.3 °C 1013.1 hPa Calm     47% 0 mm 0.0 W/m2
06:07 16.4 °C 4.7 °C 1013.1 hPa Calm     46% 0 mm 0.0 W/m2
06:17 16.1 °C 4.8 °C 1013.1 hPa Calm     47% 0 mm 0.0 W/m2
06:32 16.2 °C 4.9 °C 1013.4 hPa Calm     47% 0 mm 9.0 W/m2
06:38 16.3 °C 5 °C 1013.4 hPa Calm     47% 0 mm 12.0 W/m2
06:49 16 °C 4.7 °C 1013.4 hPa Calm     47% 0 mm 21.0 W/m2
06:58 15.9 °C 4.6 °C 1013.4 hPa Calm     47% 0 mm 56.0 W/m2
07:03 16.2 °C 4.9 °C 1013.4 hPa Calm     47% 0 mm 91.0 W/m2
07:08 16.5 °C 4.5 °C 1013.8 hPa Calm     45% 0 mm 32.0 W/m2
07:14 16.8 °C 4.8 °C 1013.8 hPa Calm     45% 0 mm 26.0 W/m2
07:19 16.9 °C 4.6 °C 1013.8 hPa Calm     44% 0 mm 32.0 W/m2
07:25 17 °C 5 °C 1013.8 hPa Calm     45% 0 mm 42.0 W/m2
07:31 17.2 °C 4.8 °C 1013.8 hPa Calm     44% 0 mm 195.0 W/m2
07:36 17.8 °C 5.1 °C 1013.8 hPa Calm     43% 0 mm 225.0 W/m2
07:39 18.5 °C 5.7 °C 1013.8 hPa Calm     43% 0 mm 248.0 W/m2
07:54 19.6 °C 7 °C 1014.1 hPa Calm     44% 0 mm 109.0 W/m2
08:00 20.2 °C 7.9 °C 1014.1 hPa Calm     45% 0 mm 276.0 W/m2
08:15 21 °C 8.3 °C 1014.1 hPa Calm     44% 0 mm 304.0 W/m2
08:30 21.9 °C 8.4 °C 1014.1 hPa Calm     42% 0 mm 352.0 W/m2
08:38 22.6 °C 8.3 °C 1014.1 hPa Calm     40% 0 mm 380.0 W/m2
10:14 27.1 °C 4.8 °C 1013.8 hPa Calm     24% 0 mm 594.0 W/m2
10:20 27.3 °C 5.5 °C 1013.8 hPa Calm     25% 0 mm 603.0 W/m2
10:30 27.4 °C 5 °C 1013.8 hPa Calm     24% 0 mm 617.0 W/m2
10:35 27.2 °C 5.5 °C 1013.4 hPa Calm     25% 0 mm 624.0 W/m2
10:40 27.3 °C 5.5 °C 1013.4 hPa Calm     25% 0 mm 633.0 W/m2
10:45 27.3 °C 5.5 °C 1013.4 hPa Calm     25% 0 mm 638.0 W/m2
10:50 27.1 °C 5.4 °C 1013.4 hPa Calm     25% 0 mm 643.0 W/m2
10:55 26.9 °C 5.2 °C 1013.1 hPa Calm   6.4 km/h 25% 0 mm 649.0 W/m2
11:00 27.3 °C 5 °C 1013.1 hPa Calm   1.6 km/h 24% 0 mm 652.0 W/m2
11:05 27.7 °C 5.3 °C 1013.1 hPa Calm     24% 0 mm 656.0 W/m2
11:10 27.9 °C 4.9 °C 1013.1 hPa Calm     23% 0 mm 659.0 W/m2
11:15 27.7 °C 4.7 °C 1012.8 hPa Calm     23% 0 mm 661.0 W/m2
11:21 27.8 °C 4.8 °C 1012.8 hPa Calm     23% 0 mm 664.0 W/m2
11:26 27.8 °C 4.1 °C 1013.1 hPa Calm     22% 0 mm 668.0 W/m2
11:31 28 °C 4.3 °C 1013.1 hPa Calm     22% 0 mm 671.0 W/m2
11:37 28.1 °C 4.4 °C 1012.8 hPa Calm     22% 0 mm 670.0 W/m2
11:42 28.1 °C 4.4 °C 1012.8 hPa Calm     22% 0 mm 670.0 W/m2
11:47 28.1 °C 4.4 °C 1012.8 hPa Calm     22% 0 mm 673.0 W/m2
11:52 28.3 °C 3.9 °C 1012.8 hPa West 1.4 km/h 4.8 km/h 21% 0 mm 673.0 W/m2
11:57 28.7 °C 4.2 °C 1012.4 hPa West 6.4 km/h 8 km/h 21% 0 mm 671.0 W/m2
12:02 28.7 °C 4.2 °C 1012.4 hPa Calm   4.8 km/h 21% 0 mm 671.0 W/m2
12:08 28.6 °C 3.4 °C 1012.4 hPa Calm     20% 0 mm 679.0 W/m2
12:14 28.8 °C 3.6 °C 1012.4 hPa Calm     20% 0 mm 673.0 W/m2
12:59 29.2 °C 3.9 °C 1011.7 hPa West 6.4 km/h 9.7 km/h 20% 0 mm 659.0 W/m2
13:06 29.3 °C 4 °C 1011.7 hPa West 3.2 km/h 6.4 km/h 20% 0 mm 642.0 W/m2
13:09 29.3 °C 4 °C 1011.7 hPa Calm   6.4 km/h 20% 0 mm 171.0 W/m2
13:24 28.8 °C 3.6 °C 1011.4 hPa Calm   6.4 km/h 20% 0 mm 670.0 W/m2
13:41 29.5 °C 3.4 °C 1011.1 hPa West 13 km/h 13 km/h 19% 0 mm 670.0 W/m2
13:56 29.9 °C 3.8 °C 1011.1 hPa West 1.4 km/h 4.8 km/h 19% 0 mm 661.0 W/m2
14:11 29.9 °C 3 °C 1011.1 hPa Calm     18% 0 mm 589.0 W/m2
14:20 29.9 °C 3 °C 1011.1 hPa Calm     18% 0 mm 476.0 W/m2
14:35 29.7 °C 2.8 °C 1010.7 hPa West 6.4 km/h 9.7 km/h 18% 0 mm 436.0 W/m2
14:51 29.6 °C 3.5 °C 1010.7 hPa Calm     19% 0 mm 410.0 W/m2
15:05 29.8 °C 2.9 °C 1010.7 hPa Calm   4.8 km/h 18% 0 mm 369.0 W/m2
15:31 29.8 °C 2.9 °C 1010.7 hPa West 6.4 km/h 12.9 km/h 18% 0 mm 292.0 W/m2
15:45 29.3 °C 2.5 °C 1010.7 hPa Calm     18% 0 mm 39.0 W/m2
15:54 28.8 °C 2.9 °C 1010.7 hPa Calm   9.7 km/h 19% 0 mm 39.0 W/m2
16:01 28.6 °C 2.7 °C 1010.7 hPa Calm     19% 0 mm 74.0 W/m2
16:11 28.3 °C 1.7 °C 1010.7 hPa West 17.7 km/h 30.6 km/h 18% 0 mm 107.0 W/m2
16:26 27.6 °C 0.3 °C 1011.1 hPa SSW 19.5 km/h 29 km/h 17% 0 mm 40.0 W/m2
16:41 26.9 °C -0.2 °C 1011.4 hPa SSW 20.9 km/h 29 km/h 17% 0 mm 42.0 W/m2
16:51 26.3 °C 0.1 °C 1011.4 hPa SSW 25.9 km/h 32.2 km/h 18% 0 mm 23.0 W/m2
17:12 25.6 °C 0.3 °C 1011.7 hPa SSW 14.3 km/h 25.7 km/h 19% 0 mm 5.0 W/m2
17:27 25 °C -0.2 °C 1012.1 hPa SSW 17.7 km/h 30.6 km/h 19% 0 mm 0.0 W/m2
17:43 24.5 °C 0.1 °C 1012.4 hPa SSW 16.3 km/h 19.3 km/h 20% 0 mm 0.0 W/m2
18:11 23.6 °C 0 °C 1012.8 hPa SSW 13 km/h 20.9 km/h 21% 0 mm 0.0 W/m2
18:24 23.4 °C -0.2 °C 1013.1 hPa SSW 17.7 km/h 20.9 km/h 21% 0 mm 0.0 W/m2
18:38 23.1 °C 0.2 °C 1013.4 hPa SSW 17.7 km/h 22.5 km/h 22% 0 mm 0.0 W/m2
18:53 22.7 °C -0.1 °C 1013.4 hPa SSW 16.3 km/h 20.9 km/h 22% 0 mm 0.0 W/m2
19:08 22.4 °C 0.2 °C 1013.8 hPa SSW 11.1 km/h 14.5 km/h 23% 0 mm 0.0 W/m2
19:40 21.9 °C 0.4 °C 1014.1 hPa SSW 11.1 km/h 14.5 km/h 24% 0 mm 0.0 W/m2
19:55 21.7 °C 0.2 °C 1014.4 hPa SSW 11.1 km/h 16.1 km/h 24% 0 mm 0.0 W/m2
20:09 21.4 °C 0.6 °C 1014.4 hPa SSW 11.1 km/h 16.1 km/h 25% 0 mm 0.0 W/m2
20:39 21.2 °C 0.9 °C 1014.4 hPa SSW 11.1 km/h 14.5 km/h 26% 0 mm 0.0 W/m2
20:54 21.1 °C 0.8 °C 1014.4 hPa SSW 11.1 km/h 16.1 km/h 26% 0 mm 0.0 W/m2
21:09 21.1 °C 0.8 °C 1014.8 hPa SSW 9.7 km/h 16.1 km/h 26% 0 mm 0.0 W/m2
21:24 21.1 °C 0.8 °C 1014.8 hPa SSW 11.1 km/h 14.5 km/h 26% 0 mm 0.0 W/m2
22:03 19.6 °C 0.6 °C 1015.1 hPa SSW 9.7 km/h 9.7 km/h 28% 0 mm 0.0 W/m2
22:12 19.3 °C 0.3 °C 1015.1 hPa SSW 7.9 km/h 9.7 km/h 28% 0 mm 0.0 W/m2
22:22 19.2 °C 0.7 °C 1015.1 hPa SSW 9.7 km/h 9.7 km/h 29% 0 mm 0.0 W/m2
22:30 19.4 °C 0.4 °C 1015.1 hPa SSW 9.7 km/h 11.3 km/h 28% 0 mm 0.0 W/m2
Canyon Roadhouse, Fishriver Canyon, Namibia
Compliments of Weather Underground - 2.25 mb